sensor_id;sensor_type;location;lat;lon;timestamp;P1;durP1;ratioP1;P2;durP2;ratioP2
59972;SDS011;55298;-36.624;-64.282;2022-07-23T00:01:15;16.70;;;10.77;;
59972;SDS011;55298;-36.624;-64.282;2022-07-23T00:03:43;20.88;;;11.20;;
59972;SDS011;55298;-36.624;-64.282;2022-07-23T00:06:12;14.48;;;10.25;;
59972;SDS011;55298;-36.624;-64.282;2022-07-23T00:08:40;17.95;;;10.43;;
59972;SDS011;55298;-36.624;-64.282;2022-07-23T00:11:09;18.15;;;10.35;;
59972;SDS011;55298;-36.624;-64.282;2022-07-23T00:13:37;13.15;;;8.93;;
59972;SDS011;55298;-36.624;-64.282;2022-07-23T00:16:05;11.82;;;10.00;;
59972;SDS011;55298;-36.624;-64.282;2022-07-23T00:18:34;15.50;;;10.48;;
59972;SDS011;55298;-36.624;-64.282;2022-07-23T00:21:04;17.75;;;10.93;;
59972;SDS011;55298;-36.624;-64.282;2022-07-23T00:23:32;15.48;;;11.35;;
59972;SDS011;55298;-36.624;-64.282;2022-07-23T00:26:01;17.40;;;10.98;;
59972;SDS011;55298;-36.624;-64.282;2022-07-23T00:28:29;21.92;;;13.40;;
59972;SDS011;55298;-36.624;-64.282;2022-07-23T00:30:58;13.50;;;11.20;;
59972;SDS011;55298;-36.624;-64.282;2022-07-23T00:33:26;13.52;;;12.00;;
59972;SDS011;55298;-36.624;-64.282;2022-07-23T00:35:55;12.80;;;9.52;;
59972;SDS011;55298;-36.624;-64.282;2022-07-23T00:38:23;22.02;;;11.20;;
59972;SDS011;55298;-36.624;-64.282;2022-07-23T00:40:52;14.55;;;10.82;;
59972;SDS011;55298;-36.624;-64.282;2022-07-23T00:43:21;15.45;;;12.13;;
59972;SDS011;55298;-36.624;-64.282;2022-07-23T00:45:49;15.15;;;11.82;;
59972;SDS011;55298;-36.624;-64.282;2022-07-23T00:48:18;16.90;;;11.45;;
59972;SDS011;55298;-36.624;-64.282;2022-07-23T00:50:48;23.02;;;14.02;;
59972;SDS011;55298;-36.624;-64.282;2022-07-23T00:53:17;18.30;;;13.75;;
59972;SDS011;55298;-36.624;-64.282;2022-07-23T00:55:46;17.67;;;13.63;;
59972;SDS011;55298;-36.624;-64.282;2022-07-23T00:58:16;20.13;;;14.00;;
59972;SDS011;55298;-36.624;-64.282;2022-07-23T01:00:45;24.95;;;13.98;;
59972;SDS011;55298;-36.624;-64.282;2022-07-23T01:03:13;19.13;;;14.93;;
59972;SDS011;55298;-36.624;-64.282;2022-07-23T01:05:41;25.05;;;15.82;;
59972;SDS011;55298;-36.624;-64.282;2022-07-23T01:08:10;28.17;;;16.55;;
59972;SDS011;55298;-36.624;-64.282;2022-07-23T01:10:39;25.58;;;17.25;;
59972;SDS011;55298;-36.624;-64.282;2022-07-23T01:13:08;28.02;;;16.60;;
59972;SDS011;55298;-36.624;-64.282;2022-07-23T01:15:37;21.17;;;17.23;;
59972;SDS011;55298;-36.624;-64.282;2022-07-23T01:18:07;29.30;;;16.35;;
59972;SDS011;55298;-36.624;-64.282;2022-07-23T01:20:38;23.63;;;16.77;;
59972;SDS011;55298;-36.624;-64.282;2022-07-23T01:23:08;23.67;;;17.92;;
59972;SDS011;55298;-36.624;-64.282;2022-07-23T01:25:35;25.70;;;17.75;;
59972;SDS011;55298;-36.624;-64.282;2022-07-23T01:28:04;23.52;;;18.33;;
59972;SDS011;55298;-36.624;-64.282;2022-07-23T01:30:32;22.10;;;18.63;;
59972;SDS011;55298;-36.624;-64.282;2022-07-23T01:33:01;25.48;;;18.38;;
59972;SDS011;55298;-36.624;-64.282;2022-07-23T01:35:29;21.55;;;17.05;;
59972;SDS011;55298;-36.624;-64.282;2022-07-23T01:38:02;23.90;;;19.35;;
59972;SDS011;55298;-36.624;-64.282;2022-07-23T01:40:30;24.92;;;18.63;;
59972;SDS011;55298;-36.624;-64.282;2022-07-23T01:43:00;22.58;;;18.63;;
59972;SDS011;55298;-36.624;-64.282;2022-07-23T01:45:28;25.58;;;18.02;;
59972;SDS011;55298;-36.624;-64.282;2022-07-23T01:47:57;20.95;;;16.15;;
59972;SDS011;55298;-36.624;-64.282;2022-07-23T01:50:27;22.27;;;16.42;;
59972;SDS011;55298;-36.624;-64.282;2022-07-23T01:52:55;24.58;;;16.98;;
59972;SDS011;55298;-36.624;-64.282;2022-07-23T01:55:25;27.40;;;17.90;;
59972;SDS011;55298;-36.624;-64.282;2022-07-23T01:57:53;19.85;;;16.73;;
59972;SDS011;55298;-36.624;-64.282;2022-07-23T02:00:22;22.83;;;17.38;;
59972;SDS011;55298;-36.624;-64.282;2022-07-23T02:02:49;21.60;;;17.48;;
59972;SDS011;55298;-36.624;-64.282;2022-07-23T02:05:18;29.10;;;18.20;;
59972;SDS011;55298;-36.624;-64.282;2022-07-23T02:07:47;23.88;;;18.50;;
59972;SDS011;55298;-36.624;-64.282;2022-07-23T02:10:16;22.10;;;16.77;;
59972;SDS011;55298;-36.624;-64.282;2022-07-23T02:12:45;21.48;;;16.63;;
59972;SDS011;55298;-36.624;-64.282;2022-07-23T02:15:13;23.20;;;17.45;;
59972;SDS011;55298;-36.624;-64.282;2022-07-23T02:17:43;22.38;;;18.73;;
59972;SDS011;55298;-36.624;-64.282;2022-07-23T02:20:12;22.83;;;18.40;;
59972;SDS011;55298;-36.624;-64.282;2022-07-23T02:22:41;21.60;;;16.23;;
59972;SDS011;55298;-36.624;-64.282;2022-07-23T02:25:09;22.35;;;17.17;;
59972;SDS011;55298;-36.624;-64.282;2022-07-23T02:27:39;20.00;;;16.70;;
59972;SDS011;55298;-36.624;-64.282;2022-07-23T02:30:07;22.83;;;17.55;;
59972;SDS011;55298;-36.624;-64.282;2022-07-23T02:32:37;22.70;;;15.57;;
59972;SDS011;55298;-36.624;-64.282;2022-07-23T02:35:05;19.65;;;15.95;;
59972;SDS011;55298;-36.624;-64.282;2022-07-23T02:37:35;20.33;;;15.77;;
59972;SDS011;55298;-36.624;-64.282;2022-07-23T02:40:02;20.52;;;16.90;;
59972;SDS011;55298;-36.624;-64.282;2022-07-23T02:42:32;21.02;;;17.25;;
59972;SDS011;55298;-36.624;-64.282;2022-07-23T02:45:00;22.15;;;16.48;;
59972;SDS011;55298;-36.624;-64.282;2022-07-23T02:47:30;18.92;;;16.23;;
59972;SDS011;55298;-36.624;-64.282;2022-07-23T02:49:58;23.02;;;17.13;;
59972;SDS011;55298;-36.624;-64.282;2022-07-23T02:52:27;23.10;;;17.60;;
59972;SDS011;55298;-36.624;-64.282;2022-07-23T02:54:56;20.73;;;15.95;;
59972;SDS011;55298;-36.624;-64.282;2022-07-23T02:57:24;25.77;;;15.77;;
59972;SDS011;55298;-36.624;-64.282;2022-07-23T02:59:53;21.40;;;15.10;;
59972;SDS011;55298;-36.624;-64.282;2022-07-23T03:02:22;20.08;;;15.05;;
59972;SDS011;55298;-36.624;-64.282;2022-07-23T03:04:51;22.73;;;17.27;;
59972;SDS011;55298;-36.624;-64.282;2022-07-23T03:07:21;22.33;;;16.40;;
59972;SDS011;55298;-36.624;-64.282;2022-07-23T03:09:50;17.17;;;13.68;;
59972;SDS011;55298;-36.624;-64.282;2022-07-23T03:12:18;23.52;;;16.85;;
59972;SDS011;55298;-36.624;-64.282;2022-07-23T03:14:47;19.58;;;15.43;;
59972;SDS011;55298;-36.624;-64.282;2022-07-23T03:17:16;20.27;;;16.70;;
59972;SDS011;55298;-36.624;-64.282;2022-07-23T03:19:46;21.08;;;17.77;;
59972;SDS011;55298;-36.624;-64.282;2022-07-23T03:22:16;23.38;;;16.55;;
59972;SDS011;55298;-36.624;-64.282;2022-07-23T03:24:44;23.10;;;17.23;;
59972;SDS011;55298;-36.624;-64.282;2022-07-23T03:27:20;22.92;;;16.42;;
59972;SDS011;55298;-36.624;-64.282;2022-07-23T03:29:51;19.92;;;14.85;;
59972;SDS011;55298;-36.624;-64.282;2022-07-23T03:32:21;22.40;;;18.17;;
59972;SDS011;55298;-36.624;-64.282;2022-07-23T03:34:50;23.65;;;17.52;;
59972;SDS011;55298;-36.624;-64.282;2022-07-23T03:37:19;23.05;;;17.30;;
59972;SDS011;55298;-36.624;-64.282;2022-07-23T03:39:48;23.33;;;16.52;;
59972;SDS011;55298;-36.624;-64.282;2022-07-23T03:42:16;22.67;;;17.20;;
59972;SDS011;55298;-36.624;-64.282;2022-07-23T03:44:44;23.48;;;17.05;;
59972;SDS011;55298;-36.624;-64.282;2022-07-23T03:47:13;24.48;;;17.88;;
59972;SDS011;55298;-36.624;-64.282;2022-07-23T03:49:42;21.40;;;17.88;;
59972;SDS011;55298;-36.624;-64.282;2022-07-23T03:52:11;23.60;;;16.67;;
59972;SDS011;55298;-36.624;-64.282;2022-07-23T03:54:39;22.88;;;17.02;;
59972;SDS011;55298;-36.624;-64.282;2022-07-23T03:57:08;22.15;;;17.23;;
59972;SDS011;55298;-36.624;-64.282;2022-07-23T03:59:36;22.17;;;16.45;;
59972;SDS011;55298;-36.624;-64.282;2022-07-23T04:02:05;20.08;;;16.40;;
59972;SDS011;55298;-36.624;-64.282;2022-07-23T04:04:33;24.45;;;16.92;;
59972;SDS011;55298;-36.624;-64.282;2022-07-23T04:07:02;26.42;;;16.83;;
59972;SDS011;55298;-36.624;-64.282;2022-07-23T04:09:30;19.63;;;16.38;;
59972;SDS011;55298;-36.624;-64.282;2022-07-23T04:12:01;22.58;;;17.48;;
59972;SDS011;55298;-36.624;-64.282;2022-07-23T04:14:29;21.30;;;15.45;;
59972;SDS011;55298;-36.624;-64.282;2022-07-23T04:16:58;20.98;;;16.42;;
59972;SDS011;55298;-36.624;-64.282;2022-07-23T04:19:27;24.52;;;17.83;;
59972;SDS011;55298;-36.624;-64.282;2022-07-23T04:21:56;20.88;;;17.00;;
59972;SDS011;55298;-36.624;-64.282;2022-07-23T04:24:24;23.15;;;15.20;;
59972;SDS011;55298;-36.624;-64.282;2022-07-23T04:26:54;23.20;;;17.00;;
59972;SDS011;55298;-36.624;-64.282;2022-07-23T04:29:23;22.92;;;16.25;;
59972;SDS011;55298;-36.624;-64.282;2022-07-23T04:31:52;19.83;;;15.57;;
59972;SDS011;55298;-36.624;-64.282;2022-07-23T04:34:20;22.52;;;18.02;;
59972;SDS011;55298;-36.624;-64.282;2022-07-23T04:36:49;18.95;;;15.50;;
59972;SDS011;55298;-36.624;-64.282;2022-07-23T04:39:17;23.75;;;17.23;;
59972;SDS011;55298;-36.624;-64.282;2022-07-23T04:41:46;22.13;;;17.48;;
59972;SDS011;55298;-36.624;-64.282;2022-07-23T04:44:15;20.40;;;17.33;;
59972;SDS011;55298;-36.624;-64.282;2022-07-23T04:46:45;22.67;;;18.20;;
59972;SDS011;55298;-36.624;-64.282;2022-07-23T04:49:13;20.90;;;16.73;;
59972;SDS011;55298;-36.624;-64.282;2022-07-23T04:51:41;22.27;;;18.42;;
59972;SDS011;55298;-36.624;-64.282;2022-07-23T04:54:09;20.50;;;17.42;;
59972;SDS011;55298;-36.624;-64.282;2022-07-23T04:56:39;23.30;;;18.10;;
59972;SDS011;55298;-36.624;-64.282;2022-07-23T04:59:07;23.00;;;17.80;;
59972;SDS011;55298;-36.624;-64.282;2022-07-23T05:01:36;24.45;;;19.20;;
59972;SDS011;55298;-36.624;-64.282;2022-07-23T05:04:04;20.65;;;17.75;;
59972;SDS011;55298;-36.624;-64.282;2022-07-23T05:06:33;26.40;;;18.58;;
59972;SDS011;55298;-36.624;-64.282;2022-07-23T05:09:01;24.95;;;17.17;;
59972;SDS011;55298;-36.624;-64.282;2022-07-23T05:11:30;23.65;;;17.13;;
59972;SDS011;55298;-36.624;-64.282;2022-07-23T05:13:57;20.15;;;15.13;;
59972;SDS011;55298;-36.624;-64.282;2022-07-23T05:16:26;19.02;;;15.50;;
59972;SDS011;55298;-36.624;-64.282;2022-07-23T05:18:56;20.15;;;15.85;;
59972;SDS011;55298;-36.624;-64.282;2022-07-23T05:21:24;20.52;;;16.27;;
59972;SDS011;55298;-36.624;-64.282;2022-07-23T05:23:53;18.45;;;15.05;;
59972;SDS011;55298;-36.624;-64.282;2022-07-23T05:26:22;21.35;;;16.80;;
59972;SDS011;55298;-36.624;-64.282;2022-07-23T05:28:50;20.30;;;16.63;;
59972;SDS011;55298;-36.624;-64.282;2022-07-23T05:31:19;24.67;;;17.10;;
59972;SDS011;55298;-36.624;-64.282;2022-07-23T05:33:47;23.15;;;15.77;;
59972;SDS011;55298;-36.624;-64.282;2022-07-23T05:36:16;23.17;;;16.58;;
59972;SDS011;55298;-36.624;-64.282;2022-07-23T05:38:44;26.75;;;17.00;;
59972;SDS011;55298;-36.624;-64.282;2022-07-23T05:41:12;20.23;;;17.88;;
59972;SDS011;55298;-36.624;-64.282;2022-07-23T05:43:40;19.13;;;16.40;;
59972;SDS011;55298;-36.624;-64.282;2022-07-23T05:46:10;17.92;;;16.05;;
59972;SDS011;55298;-36.624;-64.282;2022-07-23T05:48:38;24.48;;;16.83;;
59972;SDS011;55298;-36.624;-64.282;2022-07-23T05:51:11;22.73;;;17.48;;
59972;SDS011;55298;-36.624;-64.282;2022-07-23T05:53:39;23.90;;;17.88;;
59972;SDS011;55298;-36.624;-64.282;2022-07-23T05:56:08;24.52;;;18.42;;
59972;SDS011;55298;-36.624;-64.282;2022-07-23T05:58:36;23.02;;;18.00;;
59972;SDS011;55298;-36.624;-64.282;2022-07-23T06:01:05;30.23;;;19.33;;
59972;SDS011;55298;-36.624;-64.282;2022-07-23T06:03:34;19.13;;;14.45;;
59972;SDS011;55298;-36.624;-64.282;2022-07-23T06:06:03;23.05;;;18.40;;
59972;SDS011;55298;-36.624;-64.282;2022-07-23T06:08:32;22.75;;;17.42;;
59972;SDS011;55298;-36.624;-64.282;2022-07-23T06:11:01;23.80;;;17.33;;
59972;SDS011;55298;-36.624;-64.282;2022-07-23T06:13:29;20.48;;;15.93;;
59972;SDS011;55298;-36.624;-64.282;2022-07-23T06:15:57;19.98;;;16.90;;
59972;SDS011;55298;-36.624;-64.282;2022-07-23T06:18:28;23.40;;;16.80;;
59972;SDS011;55298;-36.624;-64.282;2022-07-23T06:20:56;21.08;;;16.50;;
59972;SDS011;55298;-36.624;-64.282;2022-07-23T06:23:25;21.33;;;17.65;;
59972;SDS011;55298;-36.624;-64.282;2022-07-23T06:25:55;25.77;;;17.85;;
59972;SDS011;55298;-36.624;-64.282;2022-07-23T06:28:24;21.75;;;15.40;;
59972;SDS011;55298;-36.624;-64.282;2022-07-23T06:30:53;23.05;;;15.38;;
59972;SDS011;55298;-36.624;-64.282;2022-07-23T06:33:22;19.15;;;15.88;;
59972;SDS011;55298;-36.624;-64.282;2022-07-23T06:35:50;24.23;;;17.30;;
59972;SDS011;55298;-36.624;-64.282;2022-07-23T06:38:18;19.98;;;15.13;;
59972;SDS011;55298;-36.624;-64.282;2022-07-23T06:40:48;21.80;;;17.83;;
59972;SDS011;55298;-36.624;-64.282;2022-07-23T06:43:16;21.52;;;16.98;;
59972;SDS011;55298;-36.624;-64.282;2022-07-23T06:45:44;24.15;;;18.38;;
59972;SDS011;55298;-36.624;-64.282;2022-07-23T06:48:13;27.55;;;18.63;;
59972;SDS011;55298;-36.624;-64.282;2022-07-23T06:50:42;24.00;;;16.45;;
59972;SDS011;55298;-36.624;-64.282;2022-07-23T06:53:11;19.73;;;15.65;;
59972;SDS011;55298;-36.624;-64.282;2022-07-23T06:55:39;21.15;;;17.55;;
59972;SDS011;55298;-36.624;-64.282;2022-07-23T06:58:08;20.58;;;14.30;;
59972;SDS011;55298;-36.624;-64.282;2022-07-23T07:00:36;23.10;;;17.33;;
59972;SDS011;55298;-36.624;-64.282;2022-07-23T07:03:04;20.95;;;15.77;;
59972;SDS011;55298;-36.624;-64.282;2022-07-23T07:05:32;22.98;;;17.10;;
59972;SDS011;55298;-36.624;-64.282;2022-07-23T07:08:05;24.10;;;17.40;;
59972;SDS011;55298;-36.624;-64.282;2022-07-23T07:10:35;21.17;;;15.60;;
59972;SDS011;55298;-36.624;-64.282;2022-07-23T07:13:04;20.55;;;16.23;;
59972;SDS011;55298;-36.624;-64.282;2022-07-23T07:15:33;24.65;;;18.25;;
59972;SDS011;55298;-36.624;-64.282;2022-07-23T07:18:02;22.58;;;17.60;;
59972;SDS011;55298;-36.624;-64.282;2022-07-23T07:20:31;21.17;;;16.98;;
59972;SDS011;55298;-36.624;-64.282;2022-07-23T07:22:59;25.55;;;18.10;;
59972;SDS011;55298;-36.624;-64.282;2022-07-23T07:25:27;23.20;;;16.80;;
59972;SDS011;55298;-36.624;-64.282;2022-07-23T07:27:57;22.17;;;17.83;;
59972;SDS011;55298;-36.624;-64.282;2022-07-23T07:30:24;22.38;;;17.50;;
59972;SDS011;55298;-36.624;-64.282;2022-07-23T07:32:52;23.27;;;16.77;;
59972;SDS011;55298;-36.624;-64.282;2022-07-23T07:35:21;20.63;;;16.55;;
59972;SDS011;55298;-36.624;-64.282;2022-07-23T07:37:50;25.73;;;17.60;;
59972;SDS011;55298;-36.624;-64.282;2022-07-23T07:40:18;25.48;;;17.85;;
59972;SDS011;55298;-36.624;-64.282;2022-07-23T07:42:48;25.33;;;17.35;;
59972;SDS011;55298;-36.624;-64.282;2022-07-23T07:45:19;26.83;;;19.77;;
59972;SDS011;55298;-36.624;-64.282;2022-07-23T07:47:49;23.75;;;18.05;;
59972;SDS011;55298;-36.624;-64.282;2022-07-23T07:50:21;21.27;;;17.08;;
59972;SDS011;55298;-36.624;-64.282;2022-07-23T07:52:51;20.25;;;15.73;;
59972;SDS011;55298;-36.624;-64.282;2022-07-23T07:55:19;28.08;;;17.00;;
59972;SDS011;55298;-36.624;-64.282;2022-07-23T07:57:49;20.48;;;15.05;;
59972;SDS011;55298;-36.624;-64.282;2022-07-23T08:00:18;25.08;;;17.85;;
59972;SDS011;55298;-36.624;-64.282;2022-07-23T08:02:48;22.88;;;17.95;;
59972;SDS011;55298;-36.624;-64.282;2022-07-23T08:05:22;24.92;;;16.90;;
59972;SDS011;55298;-36.624;-64.282;2022-07-23T08:07:51;26.13;;;17.05;;
59972;SDS011;55298;-36.624;-64.282;2022-07-23T08:10:21;22.27;;;16.13;;
59972;SDS011;55298;-36.624;-64.282;2022-07-23T08:12:52;21.25;;;16.17;;
59972;SDS011;55298;-36.624;-64.282;2022-07-23T08:15:22;19.30;;;15.57;;
59972;SDS011;55298;-36.624;-64.282;2022-07-23T08:17:52;19.30;;;16.67;;
59972;SDS011;55298;-36.624;-64.282;2022-07-23T08:20:21;20.98;;;15.07;;
59972;SDS011;55298;-36.624;-64.282;2022-07-23T08:22:54;20.02;;;13.23;;
59972;SDS011;55298;-36.624;-64.282;2022-07-23T08:25:30;17.23;;;14.02;;
59972;SDS011;55298;-36.624;-64.282;2022-07-23T08:28:00;17.23;;;14.75;;
59972;SDS011;55298;-36.624;-64.282;2022-07-23T08:30:34;21.20;;;16.45;;
59972;SDS011;55298;-36.624;-64.282;2022-07-23T08:33:05;17.20;;;15.35;;
59972;SDS011;55298;-36.624;-64.282;2022-07-23T08:35:45;18.13;;;15.07;;
59972;SDS011;55298;-36.624;-64.282;2022-07-23T08:38:16;20.02;;;14.88;;
59972;SDS011;55298;-36.624;-64.282;2022-07-23T08:40:47;19.52;;;14.10;;
59972;SDS011;55298;-36.624;-64.282;2022-07-23T08:43:20;19.20;;;14.57;;
59972;SDS011;55298;-36.624;-64.282;2022-07-23T08:45:52;16.33;;;12.98;;
59972;SDS011;55298;-36.624;-64.282;2022-07-23T08:48:23;20.35;;;14.63;;
59972;SDS011;55298;-36.624;-64.282;2022-07-23T08:50:54;18.38;;;15.50;;
59972;SDS011;55298;-36.624;-64.282;2022-07-23T08:53:25;16.45;;;14.30;;
59972;SDS011;55298;-36.624;-64.282;2022-07-23T08:55:57;19.58;;;14.35;;
59972;SDS011;55298;-36.624;-64.282;2022-07-23T08:58:30;20.83;;;15.88;;
59972;SDS011;55298;-36.624;-64.282;2022-07-23T09:00:59;22.88;;;15.52;;
59972;SDS011;55298;-36.624;-64.282;2022-07-23T09:03:29;19.83;;;14.93;;
59972;SDS011;55298;-36.624;-64.282;2022-07-23T09:05:59;21.45;;;14.95;;
59972;SDS011;55298;-36.624;-64.282;2022-07-23T09:11:10;18.33;;;14.48;;
59972;SDS011;55298;-36.624;-64.282;2022-07-23T09:13:52;19.15;;;14.00;;
59972;SDS011;55298;-36.624;-64.282;2022-07-23T09:16:28;16.63;;;14.30;;
59972;SDS011;55298;-36.624;-64.282;2022-07-23T09:19:02;17.33;;;13.75;;
59972;SDS011;55298;-36.624;-64.282;2022-07-23T09:21:33;18.05;;;13.65;;
59972;SDS011;55298;-36.624;-64.282;2022-07-23T09:24:09;17.30;;;13.95;;
59972;SDS011;55298;-36.624;-64.282;2022-07-23T09:26:44;18.67;;;13.98;;
59972;SDS011;55298;-36.624;-64.282;2022-07-23T09:29:16;16.05;;;13.52;;
59972;SDS011;55298;-36.624;-64.282;2022-07-23T09:31:51;15.43;;;11.95;;
59972;SDS011;55298;-36.624;-64.282;2022-07-23T09:34:24;16.48;;;13.32;;
59972;SDS011;55298;-36.624;-64.282;2022-07-23T09:36:58;21.17;;;13.00;;
59972;SDS011;55298;-36.624;-64.282;2022-07-23T09:39:35;14.40;;;12.68;;
59972;SDS011;55298;-36.624;-64.282;2022-07-23T09:42:20;17.50;;;13.40;;
59972;SDS011;55298;-36.624;-64.282;2022-07-23T09:44:51;18.58;;;14.05;;
59972;SDS011;55298;-36.624;-64.282;2022-07-23T09:47:22;18.50;;;13.80;;
59972;SDS011;55298;-36.624;-64.282;2022-07-23T09:50:03;18.70;;;14.30;;
59972;SDS011;55298;-36.624;-64.282;2022-07-23T09:52:41;16.65;;;13.18;;
59972;SDS011;55298;-36.624;-64.282;2022-07-23T09:55:14;14.13;;;12.70;;
59972;SDS011;55298;-36.624;-64.282;2022-07-23T09:57:45;14.27;;;12.32;;
59972;SDS011;55298;-36.624;-64.282;2022-07-23T10:00:19;16.67;;;13.32;;
59972;SDS011;55298;-36.624;-64.282;2022-07-23T10:02:48;15.20;;;13.00;;
59972;SDS011;55298;-36.624;-64.282;2022-07-23T10:05:17;20.10;;;14.15;;
59972;SDS011;55298;-36.624;-64.282;2022-07-23T10:07:47;15.43;;;13.68;;
59972;SDS011;55298;-36.624;-64.282;2022-07-23T10:10:17;18.75;;;13.55;;
59972;SDS011;55298;-36.624;-64.282;2022-07-23T10:12:48;17.98;;;13.10;;
59972;SDS011;55298;-36.624;-64.282;2022-07-23T10:15:35;15.52;;;12.88;;
59972;SDS011;55298;-36.624;-64.282;2022-07-23T10:18:09;19.63;;;15.07;;
59972;SDS011;55298;-36.624;-64.282;2022-07-23T10:20:39;20.48;;;14.90;;
59972;SDS011;55298;-36.624;-64.282;2022-07-23T10:25:59;18.20;;;13.98;;
59972;SDS011;55298;-36.624;-64.282;2022-07-23T10:28:41;19.88;;;13.63;;
59972;SDS011;55298;-36.624;-64.282;2022-07-23T10:31:35;18.63;;;14.77;;
59972;SDS011;55298;-36.624;-64.282;2022-07-23T10:37:14;25.05;;;17.65;;
59972;SDS011;55298;-36.624;-64.282;2022-07-23T10:42:43;22.50;;;17.05;;
59972;SDS011;55298;-36.624;-64.282;2022-07-23T10:45:30;23.15;;;17.05;;
59972;SDS011;55298;-36.624;-64.282;2022-07-23T10:48:25;20.80;;;16.83;;
59972;SDS011;55298;-36.624;-64.282;2022-07-23T10:53:58;19.65;;;15.38;;
59972;SDS011;55298;-36.624;-64.282;2022-07-23T10:59:27;17.50;;;13.90;;
59972;SDS011;55298;-36.624;-64.282;2022-07-23T11:02:02;19.40;;;16.25;;
59972;SDS011;55298;-36.624;-64.282;2022-07-23T11:04:51;19.25;;;15.80;;
59972;SDS011;55298;-36.624;-64.282;2022-07-23T11:07:20;24.25;;;19.70;;
59972;SDS011;55298;-36.624;-64.282;2022-07-23T11:09:49;25.70;;;19.70;;
59972;SDS011;55298;-36.624;-64.282;2022-07-23T11:12:31;26.17;;;20.27;;
59972;SDS011;55298;-36.624;-64.282;2022-07-23T11:15:02;24.27;;;17.70;;
59972;SDS011;55298;-36.624;-64.282;2022-07-23T11:17:37;26.52;;;20.55;;
59972;SDS011;55298;-36.624;-64.282;2022-07-23T11:20:26;25.48;;;19.35;;
59972;SDS011;55298;-36.624;-64.282;2022-07-23T11:22:56;26.38;;;21.58;;
59972;SDS011;55298;-36.624;-64.282;2022-07-23T11:25:28;30.65;;;25.42;;
59972;SDS011;55298;-36.624;-64.282;2022-07-23T11:30:41;27.63;;;19.80;;
59972;SDS011;55298;-36.624;-64.282;2022-07-23T11:33:16;27.30;;;20.50;;
59972;SDS011;55298;-36.624;-64.282;2022-07-23T11:35:47;30.25;;;23.40;;
59972;SDS011;55298;-36.624;-64.282;2022-07-23T11:38:26;33.72;;;25.88;;
59972;SDS011;55298;-36.624;-64.282;2022-07-23T11:40:58;32.47;;;22.75;;
59972;SDS011;55298;-36.624;-64.282;2022-07-23T11:43:27;32.88;;;21.83;;
59972;SDS011;55298;-36.624;-64.282;2022-07-23T11:45:59;29.33;;;19.15;;
59972;SDS011;55298;-36.624;-64.282;2022-07-23T11:48:29;29.63;;;20.80;;
59972;SDS011;55298;-36.624;-64.282;2022-07-23T11:50:59;28.00;;;19.30;;
59972;SDS011;55298;-36.624;-64.282;2022-07-23T11:53:28;30.85;;;20.23;;
59972;SDS011;55298;-36.624;-64.282;2022-07-23T11:56:06;24.38;;;20.40;;
59972;SDS011;55298;-36.624;-64.282;2022-07-23T11:58:36;25.33;;;18.92;;
59972;SDS011;55298;-36.624;-64.282;2022-07-23T12:01:06;24.40;;;17.00;;
59972;SDS011;55298;-36.624;-64.282;2022-07-23T12:03:34;33.05;;;21.58;;
59972;SDS011;55298;-36.624;-64.282;2022-07-23T12:06:03;23.50;;;16.98;;
59972;SDS011;55298;-36.624;-64.282;2022-07-23T12:08:33;25.90;;;19.92;;
59972;SDS011;55298;-36.624;-64.282;2022-07-23T12:11:11;24.38;;;17.95;;
59972;SDS011;55298;-36.624;-64.282;2022-07-23T12:13:41;24.70;;;18.23;;
59972;SDS011;55298;-36.624;-64.282;2022-07-23T12:16:12;21.08;;;15.15;;
59972;SDS011;55298;-36.624;-64.282;2022-07-23T12:18:40;25.17;;;17.00;;
59972;SDS011;55298;-36.624;-64.282;2022-07-23T12:21:09;21.38;;;16.67;;
59972;SDS011;55298;-36.624;-64.282;2022-07-23T12:23:37;22.70;;;15.63;;
59972;SDS011;55298;-36.624;-64.282;2022-07-23T12:26:06;18.63;;;15.35;;
59972;SDS011;55298;-36.624;-64.282;2022-07-23T12:28:37;21.30;;;16.27;;
59972;SDS011;55298;-36.624;-64.282;2022-07-23T12:31:05;17.83;;;14.95;;
59972;SDS011;55298;-36.624;-64.282;2022-07-23T12:33:35;26.65;;;16.63;;
59972;SDS011;55298;-36.624;-64.282;2022-07-23T12:36:07;21.35;;;14.52;;
59972;SDS011;55298;-36.624;-64.282;2022-07-23T12:38:38;24.88;;;16.83;;
59972;SDS011;55298;-36.624;-64.282;2022-07-23T12:41:08;19.60;;;14.77;;
59972;SDS011;55298;-36.624;-64.282;2022-07-23T12:43:38;22.52;;;17.80;;
59972;SDS011;55298;-36.624;-64.282;2022-07-23T12:46:15;20.42;;;16.02;;
59972;SDS011;55298;-36.624;-64.282;2022-07-23T12:48:52;22.13;;;15.23;;
59972;SDS011;55298;-36.624;-64.282;2022-07-23T12:51:23;21.35;;;15.00;;
59972;SDS011;55298;-36.624;-64.282;2022-07-23T12:53:55;19.38;;;14.73;;
59972;SDS011;55298;-36.624;-64.282;2022-07-23T12:56:27;17.85;;;13.88;;
59972;SDS011;55298;-36.624;-64.282;2022-07-23T12:59:01;18.23;;;14.88;;
59972;SDS011;55298;-36.624;-64.282;2022-07-23T13:01:39;25.10;;;16.42;;
59972;SDS011;55298;-36.624;-64.282;2022-07-23T13:04:18;23.88;;;15.98;;
59972;SDS011;55298;-36.624;-64.282;2022-07-23T13:06:52;20.67;;;14.25;;
59972;SDS011;55298;-36.624;-64.282;2022-07-23T13:09:26;17.13;;;13.98;;
59972;SDS011;55298;-36.624;-64.282;2022-07-23T13:11:57;18.95;;;14.55;;
59972;SDS011;55298;-36.624;-64.282;2022-07-23T13:14:27;23.40;;;15.77;;
59972;SDS011;55298;-36.624;-64.282;2022-07-23T13:16:56;18.15;;;15.35;;
59972;SDS011;55298;-36.624;-64.282;2022-07-23T13:19:25;22.13;;;17.30;;
59972;SDS011;55298;-36.624;-64.282;2022-07-23T13:21:54;23.30;;;16.83;;
59972;SDS011;55298;-36.624;-64.282;2022-07-23T13:24:22;24.70;;;19.15;;
59972;SDS011;55298;-36.624;-64.282;2022-07-23T13:26:51;21.67;;;17.10;;
59972;SDS011;55298;-36.624;-64.282;2022-07-23T13:29:19;23.20;;;17.88;;
59972;SDS011;55298;-36.624;-64.282;2022-07-23T13:31:48;22.15;;;18.75;;
59972;SDS011;55298;-36.624;-64.282;2022-07-23T13:34:16;27.90;;;18.63;;
59972;SDS011;55298;-36.624;-64.282;2022-07-23T13:36:45;21.55;;;16.23;;
59972;SDS011;55298;-36.624;-64.282;2022-07-23T13:39:13;18.20;;;15.38;;
59972;SDS011;55298;-36.624;-64.282;2022-07-23T13:41:43;20.40;;;16.80;;
59972;SDS011;55298;-36.624;-64.282;2022-07-23T13:44:11;27.15;;;19.63;;
59972;SDS011;55298;-36.624;-64.282;2022-07-23T13:46:40;17.35;;;15.43;;
59972;SDS011;55298;-36.624;-64.282;2022-07-23T13:49:08;20.15;;;15.45;;
59972;SDS011;55298;-36.624;-64.282;2022-07-23T13:51:36;22.08;;;17.98;;
59972;SDS011;55298;-36.624;-64.282;2022-07-23T13:54:04;21.52;;;17.63;;
59972;SDS011;55298;-36.624;-64.282;2022-07-23T13:56:34;22.58;;;17.10;;
59972;SDS011;55298;-36.624;-64.282;2022-07-23T13:59:02;28.05;;;19.90;;
59972;SDS011;55298;-36.624;-64.282;2022-07-23T14:01:31;19.67;;;17.52;;
59972;SDS011;55298;-36.624;-64.282;2022-07-23T14:04:00;21.13;;;17.55;;
59972;SDS011;55298;-36.624;-64.282;2022-07-23T14:06:29;21.42;;;17.80;;
59972;SDS011;55298;-36.624;-64.282;2022-07-23T14:08:58;20.90;;;17.10;;
59972;SDS011;55298;-36.624;-64.282;2022-07-23T14:11:27;21.75;;;17.48;;
59972;SDS011;55298;-36.624;-64.282;2022-07-23T14:13:56;19.10;;;17.08;;
59972;SDS011;55298;-36.624;-64.282;2022-07-23T14:16:26;26.63;;;19.48;;
59972;SDS011;55298;-36.624;-64.282;2022-07-23T14:18:54;23.50;;;17.95;;
59972;SDS011;55298;-36.624;-64.282;2022-07-23T14:21:23;19.67;;;15.63;;